Time;durP1;ratioP1;P1;durP2;ratioP2;P2;SDS_P1;SDS_P2;PMS_P1;PMS_P2;Temp;Humidity;BMP_temperature;BMP_pressure;BME280_temperature;BME280_humidity;BME280_pressure;Samples;Min_cycle;Max_cycle;Signal;HPM_P1;HPM_P2
2022/04/30 00:01:24;;;;;;;3.90;3.03;;;;;;;1.36;67.53;102224.72;5094712;28;20036;-71
2022/04/30 00:03:49;;;;;;;5.00;2.40;;;;;;;1.38;66.68;102222.88;5094580;28;20319;-69
2022/04/30 00:06:15;;;;;;;2.87;2.57;;;;;;;1.48;65.34;102224.19;5094536;28;20454;-70
2022/04/30 00:08:40;;;;;;;5.47;3.23;;;;;;;1.70;65.57;102254.72;5094698;28;20036;-73
2022/04/30 00:11:11;;;;;;;6.37;2.60;;;;;;;1.39;64.92;102205.34;5094634;28;20043;-71
2022/04/30 00:13:37;;;;;;;3.37;2.87;;;;;;;1.31;64.63;102183.84;5094275;28;20269;-69
2022/04/30 00:16:03;;;;;;;3.20;2.03;;;;;;;1.72;64.37;102258.97;5094513;28;20028;-70
2022/04/30 00:18:28;;;;;;;3.37;2.10;;;;;;;1.57;64.21;102232.56;5094543;28;20852;-69
2022/04/30 00:20:58;;;;;;;3.07;2.00;;;;;;;1.64;63.68;102255.00;5094916;28;20032;-69
2022/04/30 00:23:24;;;;;;;3.40;2.10;;;;;;;1.55;63.26;102251.88;5102369;28;20573;-70
2022/04/30 00:25:52;;;;;;;2.90;1.93;;;;;;;1.40;62.93;102244.66;5102546;28;20266;-69
2022/04/30 00:28:23;;;;;;;2.57;2.13;;;;;;;1.34;63.64;102247.56;5101889;28;20641;-69
2022/04/30 00:30:49;;;;;;;3.57;2.30;;;;;;;1.32;63.78;102244.16;5099149;28;20301;-71
2022/04/30 00:33:15;;;;;;;2.00;1.87;;;;;;;1.07;62.76;102223.38;5095379;28;20683;-72
2022/04/30 00:36:06;;;;;;;2.97;1.90;;;;;;;1.18;62.52;102254.41;5095644;28;20095;-71
2022/04/30 00:38:32;;;;;;;5.60;2.50;;;;;;;1.03;62.02;102244.56;5094757;28;20274;-70
2022/04/30 00:40:57;;;;;;;3.33;2.53;;;;;;;1.04;61.16;102256.75;5094980;28;20040;-70
2022/04/30 00:43:23;;;;;;;3.07;1.80;;;;;;;0.99;61.27;102253.47;5098559;28;20121;-68
2022/04/30 00:45:49;;;;;;;2.20;1.53;;;;;;;0.83;61.45;102243.63;5100019;28;20505;-69
2022/04/30 00:48:15;;;;;;;2.33;1.93;;;;;;;0.82;61.35;102239.28;5100884;28;20055;-67
2022/04/30 00:50:41;;;;;;;2.57;1.90;;;;;;;0.71;61.54;102235.41;5071284;28;20411;-69
2022/04/30 00:53:08;;;;;;;4.70;2.10;;;;;;;0.65;60.98;102230.44;5104208;28;20266;-70
2022/04/30 00:55:36;;;;;;;2.90;1.77;;;;;;;0.55;61.19;102214.22;5103780;28;20299;-72
2022/04/30 00:58:05;;;;;;;3.43;2.67;;;;;;;0.76;61.84;102259.69;5103922;28;20319;-69
2022/04/30 01:00:31;;;;;;;6.35;1.80;;;;;;;0.72;61.31;102269.44;5059399;28;20258;-70
2022/04/30 01:02:56;;;;;;;5.60;1.87;;;;;;;0.52;61.50;102235.31;5093996;28;20479;-70
2022/04/30 01:05:22;;;;;;;4.57;2.30;;;;;;;0.70;61.36;102276.53;5093649;28;20051;-71
2022/04/30 01:07:48;;;;;;;6.03;2.10;;;;;;;0.49;61.62;102238.06;5093367;28;20046;-69
2022/04/30 01:10:13;;;;;;;3.07;1.70;;;;;;;0.62;61.69;102270.75;5093523;28;20028;-68
2022/04/30 01:12:39;;;;;;;2.73;1.70;;;;;;;0.47;61.97;102258.22;5097013;28;20431;-68
2022/04/30 01:15:06;;;;;;;3.73;1.63;;;;;;;0.33;62.37;102236.97;5099899;28;20050;-70
2022/04/30 01:17:32;;;;;;;3.80;1.80;;;;;;;-0.06;63.03;102179.97;5100327;28;20357;-70
2022/04/30 01:19:59;;;;;;;3.40;1.90;;;;;;;0.33;63.23;102263.19;5093157;28;20300;-71
2022/04/30 01:22:39;;;;;;;7.27;1.77;;;;;;;0.36;62.78;102270.91;5092910;28;20036;-73
2022/04/30 01:25:05;;;;;;;3.43;1.70;;;;;;;0.37;63.97;102283.97;5093115;28;20274;-72
2022/04/30 01:27:31;;;;;;;2.40;1.87;;;;;;;0.33;63.40;102277.13;5093086;28;20293;-68
2022/04/30 01:30:00;;;;;;;1.57;1.47;;;;;;;0.29;63.61;102275.56;5092812;28;20265;-72
2022/04/30 01:38:06;;;;;;;4.47;2.20;;;;;;;0.20;63.65;102275.88;5095845;28;20282;-73
2022/04/30 01:40:32;;;;;;;3.90;2.20;;;;;;;0.16;63.86;102282.16;5073928;28;20652;-69
2022/04/30 01:43:01;;;;;;;3.50;1.70;;;;;;;-0.80;64.27;102126.13;5092638;28;20460;-72
2022/04/30 01:45:30;;;;;;;1.85;1.73;;;;;;;0.20;64.00;102284.59;5093091;28;20075;-72
2022/04/30 01:47:58;;;;;;;3.30;2.00;;;;;;;-0.21;63.82;102227.72;5074652;28;20438;-73
2022/04/30 01:50:24;;;;;;;2.53;2.30;;;;;;;-0.09;64.33;102264.75;5092934;28;20304;-72
2022/04/30 01:52:50;;;;;;;4.00;2.00;;;;;;;-0.04;64.73;102277.66;5074752;28;20059;-71
2022/04/30 01:55:16;;;;;;;4.10;2.37;;;;;;;-0.08;64.30;102273.47;5092776;28;20039;-72
2022/04/30 01:57:43;;;;;;;4.93;2.67;;;;;;;-0.15;64.63;102264.13;5092635;28;20395;-71
2022/04/30 02:00:10;;;;;;;3.33;2.43;;;;;;;-0.14;64.67;102276.31;5093446;28;20131;-72
2022/04/30 02:02:36;;;;;;;2.93;2.63;;;;;;;-0.01;64.30;102298.50;5097525;28;20637;-73
2022/04/30 02:05:06;;;;;;;2.40;2.00;;;;;;;-0.04;64.76;102304.72;5095437;28;20270;-72
2022/04/30 02:07:38;;;;;;;4.33;3.73;;;;;;;-0.49;64.44;102228.72;5074149;28;20277;-72
2022/04/30 02:10:06;;;;;;;4.37;2.70;;;;;;;-0.16;64.68;102286.84;5092279;28;20301;-71
2022/04/30 02:12:33;;;;;;;6.53;3.10;;;;;;;-0.20;64.60;102292.25;5092221;28;20818;-72
2022/04/30 02:15:00;;;;;;;2.87;2.50;;;;;;;-0.19;64.52;102288.72;5092319;28;20290;-72
2022/04/30 02:17:29;;;;;;;4.30;3.03;;;;;;;-0.53;64.89;102234.13;5074031;28;20270;-72
2022/04/30 02:22:41;;;;;;;2.67;2.20;;;;;;;-0.17;64.82;102308.72;5092324;28;20124;-72
2022/04/30 02:25:12;;;;;;;2.57;2.20;;;;;;;-0.20;64.88;102297.50;5092113;28;20779;-74
2022/04/30 02:27:46;;;;;;;3.30;2.33;;;;;;;-0.21;64.55;102296.66;5096368;28;20090;-71
2022/04/30 02:30:14;;;;;;;3.60;2.43;;;;;;;-0.18;64.70;102300.91;5097875;28;20266;-70
2022/04/30 02:32:42;;;;;;;4.97;3.53;;;;;;;-0.13;64.42;102312.06;5094485;28;20266;-70
2022/04/30 02:35:12;;;;;;;4.33;2.67;;;;;;;-0.10;64.72;102311.94;5092994;28;20305;-70
2022/04/30 02:37:37;;;;;;;3.33;2.57;;;;;;;-0.16;64.80;102302.56;5091837;28;20282;-71
2022/04/30 02:40:04;;;;;;;5.03;2.33;;;;;;;-0.16;64.63;102306.94;5074202;28;20365;-70
2022/04/30 02:42:30;;;;;;;4.70;2.50;;;;;;;-0.14;64.77;102310.34;5092323;28;20040;-72
2022/04/30 02:44:55;;;;;;;3.63;2.33;;;;;;;-0.22;64.98;102304.56;5092221;28;20262;-69
2022/04/30 02:47:21;;;;;;;5.53;2.83;;;;;;;-0.35;64.82;102278.81;5073924;28;20085;-72
2022/04/30 02:49:46;;;;;;;5.73;2.47;;;;;;;-0.20;64.69;102302.75;5092190;28;20119;-71
2022/04/30 02:52:11;;;;;;;3.00;2.03;;;;;;;-0.11;64.72;102315.47;5096412;28;20063;-71
2022/04/30 02:54:37;;;;;;;8.00;3.03;;;;;;;-0.10;63.76;102312.81;5096095;28;20126;-70
2022/04/30 02:57:03;;;;;;;2.97;2.60;;;;;;;-0.04;63.19;102319.56;5096242;28;20040;-71
2022/04/30 03:02:12;;;;;;;7.80;2.10;;;;;;;0.00;63.31;102321.19;5096195;28;20061;-71
2022/04/30 03:04:38;;;;;;;3.17;2.03;;;;;;;-0.26;62.86;102282.03;5095782;28;20294;-73
2022/04/30 03:07:03;;;;;;;5.17;2.40;;;;;;;-0.12;63.44;102290.22;5095633;28;20437;-70
2022/04/30 03:09:31;;;;;;;2.77;2.23;;;;;;;-0.01;62.60;102308.97;5095986;28;20122;-70
2022/04/30 03:11:57;;;;;;;3.80;2.30;;;;;;;0.14;62.42;102318.91;5096024;28;20118;-72
2022/04/30 03:14:23;;;;;;;4.13;1.90;;;;;;;0.03;62.14;102292.28;5095663;28;20294;-72
2022/04/30 03:22:19;;;;;;;4.57;2.87;;;;;;;1.31;59.75;102325.59;5096237;28;20293;-73
2022/04/30 03:24:44;;;;;;;2.87;2.67;;;;;;;2.50;55.63;102307.94;5096013;28;20270;-73
2022/04/30 03:27:11;;;;;;;2.93;2.63;;;;;;;3.57;52.43;102297.34;5096247;28;20047;-72
2022/04/30 03:29:37;;;;;;;3.50;2.67;;;;;;;4.93;48.99;102325.00;5077948;28;20070;-74
2022/04/30 03:32:02;;;;;;;5.20;3.00;;;;;;;5.82;46.35;102316.16;5096551;28;20258;-73
2022/04/30 03:34:32;;;;;;;2.50;2.30;;;;;;;5.78;45.64;102316.41;5077499;28;20052;-73
2022/04/30 03:36:58;;;;;;;3.47;2.07;;;;;;;5.51;46.18;102309.22;5078940;28;20101;-71
2022/04/30 03:39:24;;;;;;;3.80;2.23;;;;;;;5.87;45.09;102295.56;5095714;28;20258;-73
2022/04/30 03:41:49;;;;;;;2.47;2.13;;;;;;;5.45;45.65;102301.66;5096009;28;20040;-73
2022/04/30 03:44:16;;;;;;;2.83;2.13;;;;;;;5.45;45.39;102338.63;5077271;28;20176;-73
2022/04/30 03:46:42;;;;;;;2.57;2.30;;;;;;;5.55;44.91;102326.59;5095999;28;20032;-74
2022/04/30 03:49:07;;;;;;;4.17;2.50;;;;;;;5.48;45.00;102335.81;5095832;28;20274;-71
2022/04/30 03:51:33;;;;;;;2.80;2.60;;;;;;;5.54;44.76;102318.78;5095852;28;20036;-73
2022/04/30 03:53:58;;;;;;;2.67;2.10;;;;;;;5.72;45.04;102341.44;5095483;28;20491;-72
2022/04/30 03:56:24;;;;;;;3.00;2.07;;;;;;;5.89;44.07;102333.38;5095585;28;20039;-73
2022/04/30 03:58:49;;;;;;;3.80;2.40;;;;;;;5.79;44.40;102328.72;5095134;28;20605;-71
2022/04/30 04:01:18;;;;;;;6.50;2.33;;;;;;;5.90;43.86;102337.72;5094786;28;20105;-74
2022/04/30 04:03:45;;;;;;;6.28;2.50;;;;;;;5.92;44.00;102329.69;5095167;28;20038;-71
2022/04/30 04:06:13;;;;;;;4.10;2.47;;;;;;;5.61;44.00;102320.09;5076925;28;20028;-70
2022/04/30 04:08:39;;;;;;;2.97;2.25;;;;;;;4.89;45.24;102324.31;5095104;28;20757;-74
2022/04/30 04:11:10;;;;;;;3.03;2.17;;;;;;;3.95;47.56;102333.06;5095080;28;20051;-72
2022/04/30 04:19:09;;;;;;;2.80;2.20;;;;;;;2.01;51.74;102330.38;5080054;28;20135;-73
2022/04/30 04:21:34;;;;;;;2.63;1.70;;;;;;;1.92;52.35;102343.94;5095035;28;20293;-72
2022/04/30 04:26:44;;;;;;;2.80;2.07;;;;;;;1.74;53.27;102361.38;5095038;28;20564;-74
2022/04/30 04:29:10;;;;;;;3.10;1.90;;;;;;;1.63;53.13;102358.34;5077352;28;20266;-72
2022/04/30 04:31:36;;;;;;;4.33;2.37;;;;;;;1.52;53.22;102362.28;5094940;28;20032;-70
2022/04/30 04:34:04;;;;;;;5.90;2.30;;;;;;;1.46;53.21;102359.09;5094633;28;20059;-75
2022/04/30 04:36:29;;;;;;;4.33;3.13;;;;;;;1.22;53.68;102321.59;5094660;28;20340;-72
2022/04/30 04:38:55;;;;;;;2.43;1.63;;;;;;;1.37;53.74;102356.81;5076358;28;20262;-73
2022/04/30 04:41:20;;;;;;;2.63;2.33;;;;;;;1.25;53.18;102342.47;5094582;28;20464;-71
2022/04/30 04:43:46;;;;;;;1.97;1.83;;;;;;;1.34;53.17;102357.81;5076235;28;20047;-72
2022/04/30 04:46:13;;;;;;;3.00;2.47;;;;;;;1.45;52.54;102366.09;5094516;28;20044;-73
2022/04/30 04:48:39;;;;;;;3.27;2.97;;;;;;;2.45;50.42;102357.25;5094294;28;20032;-72
2022/04/30 04:51:05;;;;;;;2.67;2.47;;;;;;;4.32;45.13;102344.25;5094709;28;20274;-72
2022/04/30 04:53:31;;;;;;;3.47;2.97;;;;;;;6.04;42.13;102370.38;5094014;28;20078;-71
2022/04/30 04:55:57;;;;;;;5.33;2.97;;;;;;;6.98;39.39;102369.69;5093704;28;20330;-72
2022/04/30 04:58:22;;;;;;;4.27;2.93;;;;;;;7.36;38.31;102371.59;5094027;28;20196;-72
2022/04/30 05:00:48;;;;;;;2.07;1.60;;;;;;;6.62;38.21;102377.31;5093696;28;20037;-73
2022/04/30 05:03:14;;;;;;;2.80;2.23;;;;;;;5.28;41.56;102344.94;5093485;28;20059;-71
2022/04/30 05:05:40;;;;;;;2.70;1.70;;;;;;;4.28;43.32;102358.53;5093520;28;20693;-73
2022/04/30 05:08:05;;;;;;;1.80;1.60;;;;;;;3.72;44.90;102383.47;5093633;28;20052;-71
2022/04/30 05:10:31;;;;;;;3.87;1.80;;;;;;;3.10;45.87;102355.88;5093224;28;20418;-72
2022/04/30 05:12:57;;;;;;;1.60;1.50;;;;;;;2.83;46.75;102354.59;5092910;28;20032;-71
2022/04/30 05:15:22;;;;;;;6.33;2.00;;;;;;;2.90;46.91;102379.72;5092107;28;20380;-72
2022/04/30 05:17:48;;;;;;;1.50;1.40;;;;;;;2.69;45.46;102361.38;5094338;28;20353;-71
2022/04/30 05:20:14;;;;;;;2.30;1.50;;;;;;;2.59;45.46;102346.94;5059592;28;20051;-72
2022/04/30 05:22:40;;;;;;;5.47;1.70;;;;;;;2.62;46.00;102361.75;5094803;28;20274;-72
2022/04/30 05:25:06;;;;;;;5.37;1.63;;;;;;;2.66;45.53;102385.19;5094280;28;20089;-72
2022/04/30 05:27:32;;;;;;;6.67;1.67;;;;;;;2.48;45.88;102349.22;5075917;28;20270;-72
2022/04/30 05:29:57;;;;;;;3.87;1.80;;;;;;;2.70;46.04;102378.00;5096389;28;20361;-71
2022/04/30 05:32:23;;;;;;;3.20;2.03;;;;;;;2.73;45.83;102378.72;5103315;28;20044;-70
2022/04/30 05:34:50;;;;;;;2.93;1.73;;;;;;;2.60;45.83;102353.94;5080806;28;20063;-72
2022/04/30 05:37:16;;;;;;;6.37;1.80;;;;;;;1.76;45.92;102212.44;5085058;28;20036;-71
2022/04/30 05:39:41;;;;;;;1.43;1.20;;;;;;;2.60;43.13;102358.31;5099698;28;20263;-69
2022/04/30 05:42:07;;;;;;;1.20;1.10;;;;;;;2.72;43.83;102384.91;5099868;28;20515;-71
2022/04/30 05:44:32;;;;;;;5.30;1.40;;;;;;;2.65;43.85;102362.47;5097828;28;20039;-73
2022/04/30 05:46:58;;;;;;;2.30;1.60;;;;;;;2.66;43.85;102358.06;5096629;28;20047;-67
2022/04/30 05:49:23;;;;;;;2.27;1.40;;;;;;;2.71;42.80;102353.41;5093715;28;20628;-67
2022/04/30 05:51:49;;;;;;;2.67;1.20;;;;;;;2.87;42.28;102372.78;5092484;28;20048;-67
2022/04/30 05:54:16;;;;;;;2.50;1.57;;;;;;;2.86;42.84;102372.84;5092375;28;20067;-67
2022/04/30 05:56:41;;;;;;;1.30;1.20;;;;;;;2.75;42.06;102354.97;5092861;28;20277;-69
2022/04/30 05:59:07;;;;;;;4.43;1.53;;;;;;;2.95;41.94;102385.59;5075864;28;20671;-67
2022/04/30 06:01:32;;;;;;;4.40;1.50;;;;;;;2.98;42.38;102380.19;5093463;28;20495;-64
2022/04/30 06:03:58;;;;;;;2.63;1.10;;;;;;;2.89;41.39;102359.56;5093443;28;20040;-67
2022/04/30 06:06:23;;;;;;;2.30;1.60;;;;;;;2.99;40.78;102371.34;5074590;28;20040;-71
2022/04/30 06:08:49;;;;;;;3.70;1.30;;;;;;;3.06;40.82;102378.03;5095453;28;20032;-70
2022/04/30 06:11:14;;;;;;;12.50;1.70;;;;;;;2.99;40.21;102360.84;5094727;28;20028;-67
2022/04/30 06:13:40;;;;;;;6.50;1.43;;;;;;;3.11;40.10;102365.47;5092450;28;20046;-70
2022/04/30 06:16:05;;;;;;;2.97;1.40;;;;;;;3.27;39.26;102382.25;5091836;28;20487;-69
2022/04/30 06:18:31;;;;;;;5.17;1.43;;;;;;;3.33;39.49;102383.72;5092196;28;20093;-69
2022/04/30 06:21:23;;;;;;;4.80;1.43;;;;;;;3.25;38.60;102363.03;5092151;28;20058;-72
2022/04/30 06:23:50;;;;;;;5.27;1.77;;;;;;;3.45;39.92;102382.22;5092002;28;20847;-71
2022/04/30 06:26:15;;;;;;;10.77;1.50;;;;;;;3.33;39.41;102342.44;5092188;28;20267;-67
2022/04/30 06:28:41;;;;;;;8.17;1.57;;;;;;;3.32;39.71;102342.50;5092854;28;20273;-66
2022/04/30 06:31:07;;;;;;;4.13;1.40;;;;;;;3.48;39.16;102379.47;5092275;28;20440;-68
2022/04/30 06:33:34;;;;;;;10.00;2.40;;;;;;;3.48;39.73;102385.59;5091513;28;20541;-68
2022/04/30 06:36:01;;;;;;;5.05;2.20;;;;;;;3.48;40.00;102382.09;5096252;28;20056;-71
2022/04/30 06:38:28;;;;;;;5.73;1.43;;;;;;;3.29;40.14;102337.41;5112190;28;20044;-64
2022/04/30 06:40:53;;;;;;;5.40;1.93;;;;;;;3.63;39.75;102384.81;5112006;28;20708;-68
2022/04/30 06:43:19;;;;;;;2.30;1.87;;;;;;;3.63;40.29;102379.53;5112018;28;20078;-67
2022/04/30 06:45:45;;;;;;;4.03;1.60;;;;;;;3.67;38.94;102382.84;5113620;28;20092;-67
2022/04/30 06:48:10;;;;;;;5.20;1.17;;;;;;;3.34;39.32;102324.84;5117327;28;20130;-74
2022/04/30 06:50:36;;;;;;;6.67;2.10;;;;;;;3.73;39.44;102386.03;5122275;28;20058;-69
2022/04/30 06:58:40;;;;;;;1.40;1.20;;;;;;;3.63;39.32;102381.31;5095614;28;20637;-67
2022/04/30 07:03:55;;;;;;;2.37;1.30;;;;;;;3.66;39.07;102384.63;5094835;28;20266;-64
2022/04/30 07:06:21;;;;;;;5.30;1.70;;;;;;;3.79;39.79;102403.31;5096107;28;20316;-65
2022/04/30 07:08:46;;;;;;;2.50;1.80;;;;;;;3.87;39.39;102414.31;5111337;28;20933;-67
2022/04/30 07:11:12;;;;;;;1.27;1.17;;;;;;;3.73;39.44;102369.34;5106020;28;20829;-69
2022/04/30 07:13:37;;;;;;;2.37;1.20;;;;;;;3.81;38.27;102372.47;5100053;28;20039;-69
2022/04/30 07:16:04;;;;;;;2.60;1.70;;;;;;;4.00;39.13;102383.75;5088410;28;20048;-70
2022/04/30 07:18:30;;;;;;;2.23;1.40;;;;;;;4.18;38.81;102396.91;5092456;28;20066;-65
2022/04/30 07:20:55;;;;;;;5.83;1.57;;;;;;;4.23;38.61;102402.78;5091872;28;20266;-69
2022/04/30 07:23:22;;;;;;;8.80;1.60;;;;;;;4.15;39.47;102382.09;5073762;28;20040;-70
2022/04/30 07:25:48;;;;;;;6.47;2.23;;;;;;;4.35;39.52;102402.13;5091755;28;20274;-68
2022/04/30 07:28:14;;;;;;;5.23;1.97;;;;;;;4.47;39.28;102404.09;5091434;28;20044;-70
2022/04/30 07:30:40;;;;;;;6.67;2.00;;;;;;;4.30;39.79;102396.22;5073428;28;20641;-68
2022/04/30 07:33:08;;;;;;;1.67;1.30;;;;;;;4.26;39.24;102408.72;5100490;28;20051;-72
2022/04/30 07:35:34;;;;;;;9.63;1.98;;;;;;;4.21;38.92;102407.28;5099683;28;20031;-68
2022/04/30 07:37:59;;;;;;;4.63;2.03;;;;;;;4.20;39.63;102393.25;5105603;28;20039;-65
2022/04/30 07:40:25;;;;;;;4.73;1.10;;;;;;;4.34;39.71;102401.28;5105863;28;20027;-69
2022/04/30 07:42:51;;;;;;;10.13;2.53;;;;;;;4.40;40.12;102407.16;5097730;28;20032;-72
2022/04/30 07:45:16;;;;;;;3.33;1.10;;;;;;;4.19;39.58;102393.31;5077037;28;20039;-69
2022/04/30 07:47:42;;;;;;;6.40;1.60;;;;;;;4.29;39.32;102399.81;5094887;28;20050;-70
2022/04/30 07:50:09;;;;;;;9.47;1.97;;;;;;;4.38;39.71;102399.34;5094212;28;20036;-70
2022/04/30 07:52:34;;;;;;;4.73;1.90;;;;;;;4.57;39.98;102399.16;5095254;28;20494;-68
2022/04/30 07:55:03;;;;;;;10.13;2.00;;;;;;;4.73;39.87;102415.88;5094578;28;20290;-68
2022/04/30 07:57:29;;;;;;;;;;;;;;;4.64;40.33;102411.97;5094528;28;20042;-65
2022/04/30 07:59:54;;;;;;;6.13;2.70;;;;;;;4.56;40.58;102410.66;5094495;28;19916;-64
2022/04/30 08:02:20;;;;;;;8.80;2.07;;;;;;;4.25;41.03;102345.53;5059782;28;20032;-67
2022/04/30 08:04:45;;;;;;;11.37;3.10;;;;;;;4.65;41.81;102392.56;5094650;28;20055;-67
2022/04/30 08:07:11;;;;;;;10.67;1.70;;;;;;;4.77;41.04;102406.00;5095025;28;20031;-65
2022/04/30 08:09:37;;;;;;;2.53;1.53;;;;;;;4.56;40.21;102386.91;5106377;28;20089;-65
2022/04/30 08:12:02;;;;;;;5.03;1.47;;;;;;;4.65;41.11;102413.66;5104847;28;20027;-68
2022/04/30 08:14:28;;;;;;;8.87;1.63;;;;;;;4.59;41.89;102390.22;5087269;28;20068;-68
2022/04/30 08:16:54;;;;;;;6.33;1.53;;;;;;;4.78;41.46;102397.13;5096136;28;20410;-66
2022/04/30 08:19:20;;;;;;;4.20;1.50;;;;;;;4.84;41.84;102391.50;5076207;28;20672;-65
2022/04/30 08:21:48;;;;;;;9.93;1.60;;;;;;;4.93;41.33;102391.00;5100583;28;20331;-70
2022/04/30 08:24:39;;;;;;;10.63;1.47;;;;;;;5.09;41.23;102412.97;5103576;28;20097;-61
2022/04/30 08:27:05;;;;;;;8.50;1.97;;;;;;;5.00;41.41;102418.75;5106460;28;20767;-68
2022/04/30 08:29:31;;;;;;;12.40;2.90;;;;;;;4.90;41.62;102402.56;5092004;28;20136;-67
2022/04/30 08:31:56;;;;;;;12.63;3.13;;;;;;;4.58;42.15;102346.31;5102204;28;20081;-66
2022/04/30 08:34:24;;;;;;;9.47;2.40;;;;;;;4.78;42.41;102381.28;5094109;28;20592;-69
2022/04/30 08:36:50;;;;;;;5.27;1.33;;;;;;;4.74;42.92;102400.88;5097545;28;20524;-67
2022/04/30 08:39:15;;;;;;;8.13;1.67;;;;;;;4.78;43.17;102386.56;5101181;28;20274;-66
2022/04/30 08:41:42;;;;;;;10.57;1.50;;;;;;;4.62;43.17;102363.66;5097424;28;20039;-70
2022/04/30 08:44:13;;;;;;;8.47;1.70;;;;;;;4.95;43.32;102391.78;5095820;28;20058;-69
2022/04/30 08:46:39;;;;;;;2.43;1.73;;;;;;;4.80;42.86;102374.16;5114369;28;20758;-69
2022/04/30 08:49:06;;;;;;;7.20;1.27;;;;;;;4.82;43.26;102380.19;5114425;28;20414;-69
2022/04/30 08:51:32;;;;;;;19.90;2.93;;;;;;;4.94;43.42;102388.28;5097132;28;20060;-68
2022/04/30 08:53:58;;;;;;;8.07;1.87;;;;;;;4.90;41.91;102376.16;5094555;28;20375;-69
2022/04/30 08:56:24;;;;;;;5.37;1.37;;;;;;;4.86;41.97;102363.22;5095341;28;20036;-69
2022/04/30 08:58:51;;;;;;;18.73;4.40;;;;;;;4.92;42.39;102373.47;5075975;28;20266;-70
2022/04/30 09:01:17;;;;;;;10.17;2.20;;;;;;;5.05;42.31;102378.91;5096366;28;20266;-69
2022/04/30 09:03:46;;;;;;;3.43;1.47;;;;;;;5.03;41.94;102355.22;5094519;28;20749;-68
2022/04/30 09:06:17;;;;;;;6.20;2.00;;;;;;;5.10;40.76;102366.28;5094090;28;20134;-68
2022/04/30 09:08:51;;;;;;;9.53;1.27;;;;;;;4.78;40.94;102331.16;5093527;28;20300;-67
2022/04/30 09:11:17;;;;;;;11.60;1.77;;;;;;;4.85;39.70;102357.09;5093241;28;20300;-68
2022/04/30 09:13:48;;;;;;;11.87;1.70;;;;;;;4.94;39.64;102366.31;5093324;28;20787;-69
2022/04/30 09:16:19;;;;;;;6.90;1.50;;;;;;;5.10;41.33;102388.25;5092977;28;20266;-68
2022/04/30 09:18:44;;;;;;;2.23;1.27;;;;;;;5.08;39.59;102374.28;5075329;28;20357;-67
2022/04/30 09:21:14;;;;;;;3.27;1.40;;;;;;;5.18;40.37;102375.44;5079621;28;20309;-67
2022/04/30 09:23:39;;;;;;;4.67;1.30;;;;;;;5.21;40.74;102370.03;5097498;28;20062;-70
2022/04/30 09:26:06;;;;;;;2.37;1.20;;;;;;;5.20;38.69;102368.31;5096195;28;20282;-67
2022/04/30 09:28:34;;;;;;;6.57;1.20;;;;;;;5.34;40.07;102374.56;5093822;28;20098;-69
2022/04/30 09:31:04;;;;;;;8.70;1.80;;;;;;;5.38;40.62;102357.59;5093642;28;20278;-69
2022/04/30 09:33:30;;;;;;;7.70;3.20;;;;;;;5.25;39.22;102350.41;5093494;28;20290;-71
2022/04/30 09:38:45;;;;;;;12.07;2.40;;;;;;;5.07;39.49;102319.78;5094605;28;20262;-70
2022/04/30 09:41:11;;;;;;;6.77;1.13;;;;;;;5.28;39.24;102370.50;5100147;28;20262;-68
2022/04/30 09:43:37;;;;;;;6.40;1.60;;;;;;;5.11;38.12;102338.91;5099736;28;20051;-68
2022/04/30 09:46:07;;;;;;;4.37;1.17;;;;;;;5.16;38.35;102364.13;5095102;28;20043;-69
2022/04/30 09:54:02;;;;;;;5.10;1.30;;;;;;;5.31;39.34;102349.19;5092350;28;20262;-68
2022/04/30 09:56:37;;;;;;;3.97;1.83;;;;;;;5.34;39.67;102356.09;5092675;28;20297;-67
2022/04/30 09:59:08;;;;;;;4.20;1.33;;;;;;;5.18;39.59;102304.13;5091995;28;20335;-69
2022/04/30 10:01:35;;;;;;;7.87;1.97;;;;;;;5.38;38.77;102331.19;5091956;28;20262;-68
2022/04/30 10:04:08;;;;;;;4.43;1.23;;;;;;;5.46;37.50;102345.63;5074071;28;20270;-67
2022/04/30 10:06:36;;;;;;;4.30;1.43;;;;;;;5.40;37.56;102326.66;5092281;28;20795;-66
2022/04/30 10:09:07;;;;;;;6.77;1.70;;;;;;;5.46;39.50;102336.84;5092108;28;20258;-68
2022/04/30 10:11:54;;;;;;;5.73;1.43;;;;;;;5.68;39.28;102342.56;5092494;28;20270;-69
2022/04/30 10:14:38;;;;;;;12.70;1.40;;;;;;;5.68;39.36;102334.63;5095227;28;20293;-67
2022/04/30 10:17:12;;;;;;;3.13;1.23;;;;;;;5.48;38.39;102314.69;5098139;28;20302;-68
2022/04/30 10:19:59;;;;;;;11.43;1.60;;;;;;;5.63;37.49;102334.06;5102167;28;20230;-70
2022/04/30 10:22:25;;;;;;;7.03;1.27;;;;;;;5.47;37.22;102306.84;5103618;28;20303;-67
2022/04/30 10:24:54;;;;;;;3.10;1.17;;;;;;;5.60;36.84;102326.31;5075870;28;20345;-66
2022/04/30 10:27:22;;;;;;;4.13;1.67;;;;;;;5.78;37.36;102334.91;5092143;28;20745;-69
2022/04/30 10:29:57;;;;;;;7.13;1.00;;;;;;;5.68;35.20;102310.00;5091958;28;20303;-70
2022/04/30 10:32:26;;;;;;;3.17;1.40;;;;;;;5.66;35.31;102311.88;5092132;28;20266;-69
2022/04/30 10:34:55;;;;;;;3.80;1.30;;;;;;;5.79;35.30;102318.13;5092099;28;20298;-68
2022/04/30 10:37:35;;;;;;;6.90;1.27;;;;;;;5.85;35.86;102328.34;5073822;28;20827;-68
2022/04/30 10:40:03;;;;;;;2.77;1.50;;;;;;;5.92;35.25;102321.75;5091915;28;20058;-70
2022/04/30 10:42:40;;;;;;;1.38;1.00;;;;;;;5.88;34.97;102289.31;5091792;28;20115;-68
2022/04/30 10:45:12;;;;;;;4.00;1.40;;;;;;;5.84;34.35;102303.69;5073910;28;20043;-69
2022/04/30 10:47:58;;;;;;;9.13;1.63;;;;;;;6.03;34.69;102311.34;5057829;28;20274;-68
2022/04/30 10:50:25;;;;;;;2.77;1.10;;;;;;;6.02;33.44;102312.28;5092498;28;20365;-68
2022/04/30 10:52:51;;;;;;;2.60;1.17;;;;;;;5.92;32.49;102302.38;5091755;28;20263;-66
2022/04/30 10:55:18;;;;;;;11.57;2.47;;;;;;;5.98;32.63;102313.44;5091473;28;20377;-68
2022/04/30 10:57:45;;;;;;;4.43;1.00;;;;;;;6.00;31.99;102297.47;5091813;28;20863;-68
2022/04/30 11:00:12;;;;;;;6.30;1.93;;;;;;;5.98;31.11;102300.22;5091761;28;20369;-68
2022/04/30 11:02:38;;;;;;;2.87;1.07;;;;;;;5.87;31.75;102305.28;5091653;28;20384;-68
2022/04/30 11:05:04;;;;;;;5.00;1.27;;;;;;;5.82;32.27;102291.50;5073513;28;20737;-68
2022/04/30 11:07:31;;;;;;;5.33;1.63;;;;;;;6.03;32.26;102303.41;5073520;28;20074;-68
2022/04/30 11:09:57;;;;;;;1.50;1.30;;;;;;;5.76;31.79;102239.84;5091403;28;20036;-67
2022/04/30 11:12:32;;;;;;;4.73;1.27;;;;;;;6.03;32.28;102307.84;5094976;28;20262;-68
2022/04/30 11:14:58;;;;;;;4.10;1.37;;;;;;;6.02;31.84;102290.28;5096104;28;20730;-67
2022/04/30 11:17:25;;;;;;;4.70;1.27;;;;;;;6.08;31.93;102289.94;5095655;28;20294;-67
2022/04/30 11:19:51;;;;;;;8.20;1.70;;;;;;;6.02;31.54;102282.34;5095467;28;20038;-67
2022/04/30 11:22:17;;;;;;;15.60;1.93;;;;;;;6.07;31.88;102269.69;5095619;28;20608;-69
2022/04/30 11:24:43;;;;;;;10.67;2.10;;;;;;;6.28;31.70;102286.84;5095566;28;20266;-68
2022/04/30 11:27:09;;;;;;;8.27;1.43;;;;;;;6.28;31.31;102262.19;5096136;28;20259;-68
2022/04/30 11:29:49;;;;;;;3.07;1.00;;;;;;;6.44;30.54;102289.38;5095426;28;20043;-67
2022/04/30 11:32:33;;;;;;;13.07;2.07;;;;;;;6.23;30.36;102283.66;5095368;28;20260;-69
2022/04/30 11:35:03;;;;;;;6.27;1.30;;;;;;;6.07;30.83;102272.31;5096202;28;20729;-69
2022/04/30 11:37:39;;;;;;;4.43;1.50;;;;;;;6.13;31.78;102285.19;5099938;28;20290;-69
2022/04/30 11:40:06;;;;;;;5.63;1.67;;;;;;;6.13;32.05;102285.19;5099340;28;20365;-69
2022/04/30 11:42:32;;;;;;;11.10;3.27;;;;;;;6.04;31.79;102249.56;5100121;28;20290;-67
2022/04/30 11:44:58;;;;;;;9.97;2.97;;;;;;;6.41;32.11;102268.41;5100157;28;20278;-69
2022/04/30 11:47:24;;;;;;;7.77;1.50;;;;;;;6.45;31.87;102270.75;5087290;28;20410;-65
2022/04/30 11:50:05;;;;;;;3.07;1.27;;;;;;;6.51;31.29;102259.75;5099723;28;20039;-67
2022/04/30 11:52:31;;;;;;;3.67;1.30;;;;;;;6.37;29.28;102262.47;5105186;28;20491;-69
2022/04/30 11:54:59;;;;;;;6.57;1.60;;;;;;;6.43;30.40;102282.38;5095855;28;20281;-66
2022/04/30 11:57:25;;;;;;;4.65;1.70;;;;;;;6.33;30.55;102274.16;5096514;28;20169;-69
2022/04/30 11:59:50;;;;;;;15.83;3.03;;;;;;;6.32;30.21;102269.81;5095888;28;20495;-68
2022/04/30 12:02:16;;;;;;;7.97;2.07;;;;;;;6.29;30.59;102277.97;5095190;28;20473;-68
2022/04/30 12:04:42;;;;;;;6.30;1.20;;;;;;;6.25;30.87;102255.28;5094726;28;20555;-70
2022/04/30 12:07:10;;;;;;;2.40;1.30;;;;;;;6.29;31.34;102263.88;5095347;28;20266;-67
2022/04/30 12:09:37;;;;;;;1.30;1.20;;;;;;;6.32;30.30;102261.88;5095097;28;20410;-65
2022/04/30 12:12:17;;;;;;;7.97;1.80;;;;;;;6.31;30.78;102259.34;5097246;28;20356;-69
2022/04/30 12:14:48;;;;;;;13.17;1.90;;;;;;;6.43;30.51;102267.34;5093964;28;20340;-68